Flight Track Log - Related Links

Times and Time Zones

All times are in EST time to prevent confusion due to time zone crossing. See the ASQ5740 flight status page for this flight to view local times or setup timezone preferences in your user account.

Time Position Orientation Groundspeed Altitude Reporting Facility
EST Latitude Longitude Course Direction KTS MPH feet Rate Location/Type
Fri 02:57:02 PM 34.8567 -82.1481 64° Northeast 124 143 6,700  Level Atlanta Center
Fri 02:58:02 PM 34.9158 -82.0731 46° Northeast 204 235 9,100 2,400 Climbing Atlanta Center
Fri 02:59:02 PM 34.9814 -81.9981 43° Northeast 270 311 11,500 2,400 Climbing Atlanta Center
Fri 03:00:02 PM 35.0533 -81.9278 39° Northeast 302 348 13,900 2,300 Climbing Atlanta Center
Fri 03:01:02 PM 35.1369 -81.9383 354° North 302 348 16,100 1,750 Climbing Atlanta Center
Fri 03:02:02 PM 35.2308 -81.9411 359° North 314 361 17,400 1,000 Climbing Atlanta Center
Fri 03:03:02 PM 35.3286 -81.9131 13° North 340 391 18,100 850 Climbing Atlanta Center
Fri 03:04:02 PM 35.3806 -81.7972 61° Northeast 341 392 19,100 1,050 Climbing Atlanta Center
Fri 03:05:02 PM 35.4325 -81.6658 64° Northeast 381 438 20,200 950 Climbing Atlanta Center
Fri 03:06:02 PM 35.4819 -81.5367 65° Northeast 396 456 21,000 800 Climbing Atlanta Center
Fri 03:07:02 PM 35.5314 -81.3975 66° East 414 476 21,800 800 Climbing Atlanta Center
Fri 03:08:02 PM 35.5881 -81.2347 67° East 431 496 22,600 600 Climbing Atlanta Center
Fri 03:09:02 PM 35.6353 -81.1053 66° East 455 524 23,000 200 Climbing Atlanta Center
Fri 03:10:02 PM 35.6878 -80.9553 67° East 461 531 23,000  Level Atlanta Center
Fri 03:11:02 PM 35.7467 -80.8097 63° Northeast 466 536 23,000  Level Atlanta Center
Fri 03:12:02 PM 35.7969 -80.6644 67° East 466 536 23,000 50 Level Atlanta Center
Fri 03:13:02 PM 35.8531 -80.5006 67° East 466 536 23,100 600 Climbing Atlanta Center
Fri 03:14:02 PM 35.9053 -80.3625 65° Northeast 450 518 24,200 603 Climbing Atlanta Center
Fri 03:16:11 PM 36.0117 -80.0703 66° East 458 527 25,000 253 Climbing Washington Center
Fri 03:17:12 PM 36.0733 -79.9275 62° Northeast 463 533 25,000  Level Washington Center
Fri 03:18:13 PM 36.1511 -79.7928 54° Northeast 469 540 25,000 -99 Level Washington Center
Fri 03:19:13 PM 36.2356 -79.6428 55° Northeast 481 554 24,800 -508 Descending Washington Center
Fri 03:20:11 PM 36.3111 -79.5100 55° Northeast 476 548 24,000 -915 Descending Washington Center
Fri 03:21:11 PM 36.3842 -79.3769 56° Northeast 464 534 23,000 -496 Descending Washington Center
Fri 03:22:12 PM 36.4569 -79.2486 55° Northeast 458 527 23,000  Level Washington Center
Fri 03:23:12 PM 36.5275 -79.1228 55° Northeast 447 514 23,000 -397 Level Washington Center
Fri 03:24:13 PM 36.5981 -78.9942 56° Northeast 442 509 22,200 -893 Descending Washington Center
Fri 03:25:13 PM 36.6572 -78.8931 54° Northeast 442 509 21,200 -600 Descending Washington Center
Fri 03:26:13 PM 36.7364 -78.7408 57° Northeast 454 522 21,000 -102 Descending Washington Center
Fri 03:27:11 PM 36.8064 -78.6114 56° Northeast 454 522 21,000  Level Washington Center
Fri 03:28:12 PM 36.8850 -78.4742 54° Northeast 449 517 21,000  Level Washington Center
Fri 03:29:13 PM 36.9550 -78.3417 57° Northeast 444 511 21,000  Level Washington Center
Fri 03:30:13 PM 37.0286 -78.2169 54° Northeast 444 511 21,000  Level Washington Center
Fri 03:31:12 PM 37.1306 -78.1344 33° Northeast 439 505 21,000  Level Washington Center
Fri 03:32:12 PM 37.2344 -78.0569 31° Northeast 434 499 21,000  Level Washington Center
Fri 03:33:13 PM 37.3361 -77.9767 32° Northeast 429 494 21,000  Level Washington Center
Fri 03:34:13 PM 37.4294 -77.9039 32° Northeast 418 481 21,000  Level Washington Center
Fri 03:35:11 PM 37.5161 -77.8383 31° Northeast 386 444 21,000  Level Washington Center
Fri 03:36:12 PM 37.6089 -77.7833 25° Northeast 369 425 21,000  Level Washington Center
Fri 03:37:12 PM 37.6994 -77.7308 25° Northeast 357 411 21,000 -857 Level Washington Center
Fri 03:38:11 PM 37.7956 -77.7336 359° North 340 391 19,300 -1,600 Descending Washington Center
Fri 03:39:12 PM 37.8847 -77.7492 352° North 329 379 17,800 -1,721 Descending Washington Center
Fri 03:40:13 PM 37.9650 -77.6961 28° Northeast 313 360 15,800 -1,866 Descending Washington Center
Fri 03:41:11 PM 38.0203 -77.6292 44° Northeast 313 360 14,100 -1,966 Descending Washington Center
Fri 03:42:12 PM 38.0969 -77.5442 41° Northeast 319 367 11,900 -1,918 Descending Washington Center
Fri 03:43:13 PM 38.1628 -77.4694 42° Northeast 324 373 10,200 -893 Descending Washington Center
Fri 03:44:13 PM 38.2408 -77.4133 29° Northeast 319 367 10,100 -203 Descending Washington Center
Fri 03:45:11 PM 38.3208 -77.3647 25° Northeast 314 361 9,800 -1,008 Descending Washington Center
Fri 03:46:12 PM 38.4083 -77.3589 North 306 352 8,100 -1,438 Descending Washington Center
Fri 03:47:12 PM 38.4722 -77.4083 329° Northwest 279 321 6,900 -1,041 Descending Washington Center
Fri 03:48:13 PM 38.5411 -77.4100 359° North 255 293 6,000 -1,041 Descending Washington Center
Fri 03:49:13 PM 38.6100 -77.3931 11° North 250 288 4,800 -1,176 Descending Washington Center
Fri 03:49:55 PM 38.6667 -77.3833 North 248 285 4,000 -471 Descending Potomac TRACON
Fri 03:50:55 PM 38.7333 -77.3667 11° North 248 285 4,000  Level Potomac TRACON
Fri 03:51:56 PM 38.8000 -77.3500 11° North 244 281 4,000 -50 Level Potomac TRACON
Fri 03:52:56 PM 38.8667 -77.3500 360° North 239 275 3,900 -500 Descending Potomac TRACON
Fri 03:53:56 PM 38.9333 -77.3500 360° North 228 262 3,000 -446 Descending Potomac TRACON
Fri 03:54:57 PM 39.0000 -77.3500 360° North 240 276 3,000 -50 Level Potomac TRACON
Fri 03:55:57 PM 39.0667 -77.3500 360° North 225 259 2,900 -350 Descending Potomac TRACON
Fri 03:56:57 PM 39.1167 -77.3833 333° Northwest 202 232 2,300 -470 Descending Potomac TRACON
Fri 03:57:52 PM 39.1000 -77.4333 247° West 203 234 2,000 -157 Descending Potomac TRACON
Fri 03:58:52 PM 39.0500 -77.4333 180° South 179 206 2,000 -381 Level Potomac TRACON
Fri 03:59:58 PM 39.0000 -77.4333 180° South 161 185 1,200 -709 Descending Potomac TRACON
Fri 04:00:59 PM 38.9667 -77.4333 180° South 133 153 500 -689 Descending Potomac TRACON

Login

Don't have an account? Register now (free) for customized features, flight alerts, and more!